createdAt,value
2023-03-28T00:00:27.600Z,38.46
2023-03-28T00:01:26.592Z,38.56
2023-03-28T00:02:26.625Z,38.42
2023-03-28T00:03:26.628Z,38.51
2023-03-28T00:04:26.582Z,38.86
2023-03-28T00:05:26.585Z,38.98
2023-03-28T00:06:26.623Z,38.94
2023-03-28T00:07:26.564Z,38.46
2023-03-28T00:08:26.594Z,38.41
2023-03-28T00:09:26.636Z,38.40
2023-03-28T00:10:26.677Z,39.17
2023-03-28T00:11:26.719Z,38.78
2023-03-28T00:12:26.770Z,38.16
2023-03-28T00:13:26.829Z,37.73
2023-03-28T00:14:26.888Z,37.60
2023-03-28T00:15:26.929Z,38.02
2023-03-28T00:16:27.073Z,38.67
2023-03-28T00:17:27.077Z,38.85
2023-03-28T00:18:27.071Z,37.72
2023-03-28T00:19:27.106Z,37.29
2023-03-28T00:20:27.173Z,37.61
2023-03-28T00:21:27.257Z,37.30
2023-03-28T00:22:27.300Z,37.07
2023-03-28T00:23:27.338Z,36.72
2023-03-28T00:24:27.415Z,36.66
2023-03-28T00:25:27.542Z,36.57
2023-03-28T00:26:27.518Z,36.70
2023-03-28T00:27:27.569Z,36.66
2023-03-28T00:28:27.641Z,36.36
2023-03-28T00:29:27.697Z,36.49
2023-03-28T00:30:27.745Z,36.52
2023-03-28T00:31:27.796Z,36.33
2023-03-28T00:32:27.817Z,36.61
2023-03-28T00:33:27.840Z,36.58
2023-03-28T00:34:27.900Z,36.79
2023-03-28T00:35:28.015Z,36.67
2023-03-28T00:36:28.017Z,36.75
2023-03-28T00:37:28.077Z,36.04
2023-03-28T00:38:28.138Z,36.16
2023-03-28T00:39:28.206Z,36.20
2023-03-28T00:40:28.264Z,36.26
2023-03-28T00:41:28.342Z,36.28
2023-03-28T00:42:28.395Z,36.26
2023-03-28T00:43:28.440Z,36.44
2023-03-28T00:44:28.507Z,36.55
2023-03-28T00:45:28.555Z,36.81
2023-03-28T00:46:28.641Z,36.86
2023-03-28T00:47:28.722Z,37.17
2023-03-28T00:48:28.652Z,37.06
2023-03-28T00:49:28.679Z,36.95
2023-03-28T00:50:28.717Z,37.13
2023-03-28T00:51:28.773Z,37.53
2023-03-28T00:52:28.772Z,37.48
2023-03-28T00:53:28.792Z,37.52
2023-03-28T00:54:28.819Z,37.45
2023-03-28T00:55:28.834Z,37.61
2023-03-28T00:56:28.863Z,37.97
2023-03-28T00:57:28.875Z,38.27
2023-03-28T00:58:28.911Z,37.90
2023-03-28T00:59:28.944Z,37.54
2023-03-28T01:00:28.997Z,37.61
2023-03-28T01:01:29.036Z,37.48
2023-03-28T01:02:29.135Z,37.19
2023-03-28T01:03:29.190Z,37.31
2023-03-28T01:04:29.146Z,37.40
2023-03-28T01:05:29.230Z,37.50
2023-03-28T01:06:29.242Z,37.65
2023-03-28T01:07:29.267Z,37.60
2023-03-28T01:08:29.325Z,37.22
2023-03-28T01:09:29.354Z,37.24
2023-03-28T01:10:29.379Z,37.23
2023-03-28T01:11:29.423Z,37.17
2023-03-28T01:12:29.474Z,37.05
2023-03-28T01:13:29.491Z,37.20
2023-03-28T01:14:29.515Z,36.41
2023-03-28T01:15:30.688Z,36.29
2023-03-28T01:16:29.713Z,36.65
2023-03-28T01:17:29.676Z,36.87
2023-03-28T01:18:29.707Z,36.71
2023-03-28T01:19:29.730Z,36.64
2023-03-28T01:20:29.739Z,36.73
2023-03-28T01:21:29.760Z,36.48
2023-03-28T01:22:29.769Z,36.67
2023-03-28T01:23:29.792Z,36.55
2023-03-28T01:24:29.810Z,36.47
2023-03-28T01:25:29.864Z,36.39
2023-03-28T01:26:29.813Z,36.55
2023-03-28T01:27:29.836Z,36.71
2023-03-28T01:28:29.857Z,36.50
2023-03-28T01:29:29.895Z,36.51
2023-03-28T01:30:29.930Z,36.30
2023-03-28T01:31:30.033Z,36.25
2023-03-28T01:32:30.075Z,36.31
2023-03-28T01:33:30.085Z,36.68
2023-03-28T01:34:30.177Z,36.80
2023-03-28T01:35:30.267Z,36.81
2023-03-28T01:36:33.934Z,37.11
2023-03-28T01:37:31.327Z,37.20
2023-03-28T01:38:30.239Z,37.40
2023-03-28T01:39:30.236Z,38.00
2023-03-28T01:40:30.238Z,38.52
2023-03-28T01:41:30.240Z,38.81
2023-03-28T01:42:30.219Z,39.15
2023-03-28T01:43:30.211Z,39.01
2023-03-28T01:44:30.229Z,38.93
2023-03-28T01:45:30.307Z,37.64
2023-03-28T01:46:30.352Z,37.07
2023-03-28T01:47:30.432Z,36.98
2023-03-28T01:48:30.443Z,37.32
2023-03-28T01:49:30.522Z,36.96
2023-03-28T01:50:30.569Z,37.16
2023-03-28T01:51:30.640Z,37.56
2023-03-28T01:52:30.676Z,39.05
2023-03-28T01:53:30.740Z,40.54
2023-03-28T01:54:30.792Z,41.33
2023-03-28T01:55:30.811Z,41.99
2023-03-28T01:56:31.035Z,42.38
2023-03-28T01:57:30.907Z,42.63
2023-03-28T01:58:30.827Z,42.69
2023-03-28T01:59:30.838Z,41.94
2023-03-28T02:00:30.856Z,42.29
2023-03-28T02:01:30.882Z,42.56
2023-03-28T02:02:30.959Z,42.54
2023-03-28T02:03:30.907Z,42.44
2023-03-28T02:04:30.911Z,42.15
2023-03-28T02:05:30.914Z,42.23
2023-03-28T02:06:30.911Z,41.96
2023-03-28T02:07:30.929Z,41.21
2023-03-28T02:08:30.932Z,41.33
2023-03-28T02:09:30.952Z,41.30
2023-03-28T02:10:30.925Z,41.15
2023-03-28T02:11:30.929Z,41.19
2023-03-28T02:12:30.945Z,41.16
2023-03-28T02:13:30.942Z,41.39
2023-03-28T02:14:30.951Z,41.61
2023-03-28T02:15:30.968Z,41.55
2023-03-28T02:16:31.005Z,41.75
2023-03-28T02:17:31.001Z,41.89
2023-03-28T02:18:30.958Z,41.83
2023-03-28T02:19:30.967Z,42.11
2023-03-28T02:20:31.009Z,42.09
2023-03-28T02:21:31.049Z,42.31
2023-03-28T02:22:31.094Z,42.36
2023-03-28T02:23:31.127Z,42.58
2023-03-28T02:24:31.150Z,42.28
2023-03-28T02:25:31.217Z,42.28
2023-03-28T02:26:31.259Z,42.31
2023-03-28T02:27:31.347Z,42.48
2023-03-28T02:28:31.371Z,42.42
2023-03-28T02:29:31.383Z,42.88
2023-03-28T02:30:31.363Z,42.91
2023-03-28T02:31:31.390Z,42.81
2023-03-28T02:32:31.434Z,43.11
2023-03-28T02:33:31.518Z,43.07
2023-03-28T02:34:31.574Z,43.16
2023-03-28T02:35:31.603Z,43.23
2023-03-28T02:36:31.592Z,42.91
2023-03-28T02:37:31.673Z,43.05
2023-03-28T02:38:31.596Z,42.95
2023-03-28T02:39:31.605Z,43.30
2023-03-28T02:40:31.627Z,43.09
2023-03-28T02:41:31.623Z,43.17
2023-03-28T02:42:31.634Z,43.44
2023-03-28T02:43:31.622Z,43.51
2023-03-28T02:44:31.651Z,43.65
2023-03-28T02:45:31.671Z,43.41
2023-03-28T02:46:31.830Z,43.14
2023-03-28T02:47:31.860Z,43.23
2023-03-28T02:48:31.868Z,43.32
2023-03-28T02:49:43.724Z,43.23
2023-03-28T02:50:32.889Z,43.05
2023-03-28T02:51:31.882Z,42.99
2023-03-28T02:52:31.866Z,42.55
2023-03-28T02:53:31.868Z,42.76
2023-03-28T02:54:31.853Z,43.43
2023-03-28T02:55:31.856Z,44.21
2023-03-28T02:56:31.877Z,45.66
2023-03-28T02:57:31.849Z,45.97
2023-03-28T02:58:31.825Z,45.54
2023-03-28T02:59:31.831Z,45.37
2023-03-28T03:00:31.815Z,45.39
2023-03-28T03:01:31.922Z,45.95
2023-03-28T03:02:31.850Z,46.41
2023-03-28T03:03:31.853Z,46.24
2023-03-28T03:04:31.788Z,46.48
2023-03-28T03:05:31.841Z,46.22
2023-03-28T03:06:31.893Z,44.61
2023-03-28T03:07:31.952Z,45.18
2023-03-28T03:08:31.996Z,45.72
2023-03-28T03:09:32.051Z,45.77
2023-03-28T03:10:32.079Z,46.12
2023-03-28T03:11:32.087Z,45.90
2023-03-28T03:12:32.129Z,46.26
2023-03-28T03:13:32.173Z,46.29
2023-03-28T03:14:32.228Z,45.94
2023-03-28T03:15:32.229Z,45.68
2023-03-28T03:16:32.364Z,46.04
2023-03-28T03:17:32.360Z,45.90
2023-03-28T03:18:32.350Z,45.72
2023-03-28T03:19:32.336Z,45.90
2023-03-28T03:20:32.321Z,45.65
2023-03-28T03:21:32.320Z,45.36
2023-03-28T03:22:32.325Z,45.45
2023-03-28T03:23:32.325Z,45.61
2023-03-28T03:24:32.306Z,45.28
2023-03-28T03:25:32.310Z,45.15
2023-03-28T03:26:32.313Z,43.78
2023-03-28T03:27:32.300Z,44.14
2023-03-28T03:28:32.358Z,44.58
2023-03-28T03:29:38.380Z,44.55
2023-03-28T03:30:33.305Z,44.75
2023-03-28T03:31:32.327Z,44.73
2023-03-28T03:32:32.320Z,44.59
2023-03-28T03:33:32.780Z,44.53
2023-03-28T03:34:32.277Z,44.97
2023-03-28T03:35:32.280Z,45.08
2023-03-28T03:36:32.250Z,44.52
2023-03-28T03:37:32.258Z,44.55
2023-03-28T03:38:32.251Z,44.73
2023-03-28T03:39:32.225Z,44.91
2023-03-28T03:40:32.242Z,45.00
2023-03-28T03:41:32.226Z,44.91
2023-03-28T03:42:32.212Z,44.80
2023-03-28T03:43:32.226Z,44.72
2023-03-28T03:44:32.199Z,44.80
2023-03-28T03:45:32.202Z,44.64
2023-03-28T03:46:32.189Z,44.68
2023-03-28T03:47:32.197Z,44.71
2023-03-28T03:48:32.165Z,44.89
2023-03-28T03:49:32.170Z,44.61
2023-03-28T03:50:32.185Z,44.25
2023-03-28T03:51:32.197Z,44.41
2023-03-28T03:52:32.236Z,44.16
2023-03-28T03:53:32.237Z,44.53
2023-03-28T03:54:32.247Z,44.21
2023-03-28T03:55:32.277Z,44.11
2023-03-28T03:56:32.305Z,44.29
2023-03-28T03:57:32.323Z,44.03
2023-03-28T03:58:32.368Z,44.24
2023-03-28T03:59:32.374Z,43.65
2023-03-28T04:00:32.391Z,43.65
2023-03-28T04:01:32.410Z,43.69
2023-03-28T04:02:32.501Z,43.31
2023-03-28T04:03:32.513Z,43.62
2023-03-28T04:04:32.556Z,43.46
2023-03-28T04:05:32.585Z,43.46
2023-03-28T04:06:32.621Z,43.52
2023-03-28T04:07:32.679Z,43.59
2023-03-28T04:08:32.732Z,43.29
2023-03-28T04:09:32.789Z,43.26
2023-03-28T04:10:32.836Z,43.32
2023-03-28T04:11:32.844Z,43.71
2023-03-28T04:12:32.858Z,43.65
2023-03-28T04:13:32.886Z,43.77
2023-03-28T04:14:32.887Z,43.62
2023-03-28T04:15:32.921Z,44.14
2023-03-28T04:16:40.297Z,43.86
2023-03-28T04:17:33.946Z,43.72
2023-03-28T04:18:32.910Z,43.79
2023-03-28T04:19:32.900Z,44.00
2023-03-28T04:20:32.915Z,43.63
2023-03-28T04:21:32.901Z,43.75
2023-03-28T04:22:32.893Z,43.48
2023-03-28T04:23:34.012Z,43.52
2023-03-28T04:24:32.867Z,43.19
2023-03-28T04:25:32.867Z,43.27
2023-03-28T04:26:32.855Z,43.49
2023-03-28T04:27:32.847Z,43.27
2023-03-28T04:28:32.855Z,43.31
2023-03-28T04:29:32.850Z,43.24
2023-03-28T04:30:32.844Z,43.31
2023-03-28T04:31:32.845Z,43.14
2023-03-28T04:32:32.899Z,42.99
2023-03-28T04:33:32.828Z,42.91
2023-03-28T04:34:32.804Z,42.72
2023-03-28T04:35:32.843Z,42.13
2023-03-28T04:36:32.809Z,41.11
2023-03-28T04:37:32.808Z,40.84
2023-03-28T04:38:32.804Z,40.24
2023-03-28T04:39:32.768Z,40.02
2023-03-28T04:40:32.771Z,39.91
2023-03-28T04:41:32.781Z,40.51
2023-03-28T04:42:32.765Z,40.93
2023-03-28T04:43:32.744Z,41.48
2023-03-28T04:44:32.747Z,41.48
2023-03-28T04:45:32.774Z,41.58
2023-03-28T04:46:32.739Z,40.88
2023-03-28T04:47:32.774Z,40.81
2023-03-28T04:48:32.728Z,40.72
2023-03-28T04:49:32.719Z,41.01
2023-03-28T04:50:35.129Z,40.99
2023-03-28T04:51:32.690Z,39.24
2023-03-28T04:52:32.681Z,39.03
2023-03-28T04:53:32.693Z,39.36
2023-03-28T04:54:32.685Z,40.09
2023-03-28T04:55:32.659Z,40.20
2023-03-28T04:56:32.653Z,40.33
2023-03-28T04:57:32.680Z,39.79
2023-03-28T04:58:32.644Z,39.71
2023-03-28T04:59:32.652Z,39.73
2023-03-28T05:00:32.637Z,40.72
2023-03-28T05:01:32.698Z,41.41
2023-03-28T05:02:32.720Z,41.53
2023-03-28T05:03:32.724Z,41.91
2023-03-28T05:04:32.590Z,41.54
2023-03-28T05:05:32.581Z,41.67
2023-03-28T05:06:32.576Z,41.67
2023-03-28T05:07:32.572Z,41.12
2023-03-28T05:08:32.589Z,41.35
2023-03-28T05:09:32.578Z,42.03
2023-03-28T05:10:32.555Z,40.69
2023-03-28T05:11:32.553Z,40.43
2023-03-28T05:12:32.535Z,39.62
2023-03-28T05:13:32.531Z,39.36
2023-03-28T05:14:32.530Z,39.45
2023-03-28T05:15:32.520Z,38.46
2023-03-28T05:16:32.544Z,38.62
2023-03-28T05:17:32.534Z,38.18
2023-03-28T05:18:32.517Z,38.94
2023-03-28T05:19:32.505Z,38.53
2023-03-28T05:20:32.494Z,37.75
2023-03-28T05:21:32.485Z,37.66
2023-03-28T05:22:32.469Z,38.32
2023-03-28T05:23:32.472Z,38.57
2023-03-28T05:24:33.326Z,39.29
2023-03-28T05:25:32.467Z,39.04
2023-03-28T05:26:32.446Z,38.74
2023-03-28T05:27:32.513Z,37.67
2023-03-28T05:28:32.497Z,37.92
2023-03-28T05:29:32.463Z,37.41
2023-03-28T05:30:32.429Z,37.04
2023-03-28T05:31:32.995Z,37.93
2023-03-28T05:32:32.455Z,37.99
2023-03-28T05:33:32.428Z,37.09
2023-03-28T05:34:32.393Z,37.38
2023-03-28T05:35:32.460Z,37.64
2023-03-28T05:36:32.909Z,37.62
2023-03-28T05:37:32.403Z,37.53
2023-03-28T05:38:32.389Z,36.86
2023-03-28T05:39:33.529Z,36.51
2023-03-28T05:40:32.349Z,36.88
2023-03-28T05:41:32.350Z,37.78
2023-03-28T05:42:32.349Z,37.63
2023-03-28T05:43:32.330Z,37.68
2023-03-28T05:44:32.323Z,38.04
2023-03-28T05:45:32.346Z,37.95
2023-03-28T05:46:32.364Z,38.79
2023-03-28T05:47:32.311Z,39.18
2023-03-28T05:48:32.363Z,39.87
2023-03-28T05:49:32.307Z,39.59
2023-03-28T05:50:32.286Z,39.01
2023-03-28T05:51:32.360Z,38.76
2023-03-28T05:52:32.275Z,38.02
2023-03-28T05:53:32.267Z,38.00
2023-03-28T05:54:32.247Z,37.94
2023-03-28T05:55:34.367Z,38.06
2023-03-28T05:56:32.240Z,38.42
2023-03-28T05:57:32.405Z,38.73
2023-03-28T05:58:32.330Z,38.57
2023-03-28T05:59:32.249Z,38.24
2023-03-28T06:00:32.224Z,38.30
2023-03-28T06:01:32.224Z,38.66
2023-03-28T06:02:32.223Z,39.08
2023-03-28T06:03:32.253Z,39.13
2023-03-28T06:04:32.255Z,38.71
2023-03-28T06:05:32.202Z,38.46
2023-03-28T06:06:32.164Z,38.79
2023-03-28T06:07:41.949Z,38.86
2023-03-28T06:08:33.180Z,38.08
2023-03-28T06:09:32.185Z,37.63
2023-03-28T06:10:32.155Z,37.71
2023-03-28T06:11:32.168Z,37.23
2023-03-28T06:12:32.352Z,35.96
2023-03-28T06:13:32.147Z,36.59
2023-03-28T06:14:32.116Z,36.89
2023-03-28T06:15:32.152Z,36.99
2023-03-28T06:16:32.146Z,36.86
2023-03-28T06:17:32.154Z,36.42
2023-03-28T06:18:32.090Z,35.81
2023-03-28T06:19:32.087Z,35.40
2023-03-28T06:20:32.121Z,35.31
2023-03-28T06:21:32.108Z,35.70
2023-03-28T06:22:32.095Z,35.86
2023-03-28T06:23:32.176Z,36.00
2023-03-28T06:24:32.113Z,35.93
2023-03-28T06:25:32.109Z,36.32
2023-03-28T06:26:32.128Z,36.45
2023-03-28T06:27:32.138Z,36.59
2023-03-28T06:28:32.134Z,35.59
2023-03-28T06:29:32.182Z,35.60
2023-03-28T06:30:32.198Z,34.85
2023-03-28T06:31:32.232Z,34.54
2023-03-28T06:32:32.384Z,34.80
2023-03-28T06:33:32.378Z,34.26
2023-03-28T06:34:32.217Z,34.51
2023-03-28T06:35:32.389Z,34.50
2023-03-28T06:36:32.236Z,34.25
2023-03-28T06:37:32.375Z,34.01
2023-03-28T06:38:32.312Z,34.31
2023-03-28T06:39:32.273Z,34.38
2023-03-28T06:40:32.330Z,34.40
2023-03-28T06:41:32.381Z,34.36
2023-03-28T06:42:32.856Z,34.34
2023-03-28T06:43:32.501Z,34.22
2023-03-28T06:44:32.564Z,33.99
2023-03-28T06:45:32.614Z,33.72
2023-03-28T06:46:32.693Z,33.51
2023-03-28T06:47:32.774Z,34.00
2023-03-28T06:48:34.920Z,34.37
2023-03-28T06:49:32.780Z,35.11
2023-03-28T06:50:32.838Z,35.64
2023-03-28T06:51:32.779Z,35.61
2023-03-28T06:52:32.896Z,35.66
2023-03-28T06:53:32.789Z,35.24
2023-03-28T06:54:32.768Z,34.91
2023-03-28T06:55:32.770Z,34.55
2023-03-28T06:56:32.735Z,34.43
2023-03-28T06:57:32.741Z,34.09
2023-03-28T06:58:32.721Z,34.48
2023-03-28T06:59:32.887Z,34.08
2023-03-28T07:00:32.712Z,33.13
2023-03-28T07:01:32.734Z,33.24
2023-03-28T07:02:32.730Z,32.20
2023-03-28T07:03:32.744Z,32.92
2023-03-28T07:04:32.691Z,33.24
2023-03-28T07:05:32.697Z,33.40
2023-03-28T07:06:32.676Z,33.21
2023-03-28T07:07:32.703Z,33.52
2023-03-28T07:08:32.711Z,33.86
2023-03-28T07:09:32.674Z,33.40
2023-03-28T07:10:32.644Z,33.70
2023-03-28T07:11:32.669Z,34.10
2023-03-28T07:12:33.371Z,33.81
2023-03-28T07:13:32.621Z,34.04
2023-03-28T07:14:32.633Z,34.03
2023-03-28T07:15:32.624Z,33.44
2023-03-28T07:16:32.634Z,33.81
2023-03-28T07:17:32.726Z,33.54
2023-03-28T07:18:32.588Z,32.96
2023-03-28T07:19:32.595Z,32.84
2023-03-28T07:20:32.570Z,33.39
2023-03-28T07:21:32.559Z,33.20
2023-03-28T07:22:32.573Z,33.83
2023-03-28T07:23:32.564Z,34.27
2023-03-28T07:24:32.542Z,34.10
2023-03-28T07:25:32.890Z,32.94
2023-03-28T07:26:32.582Z,32.51
2023-03-28T07:27:32.528Z,32.81
2023-03-28T07:28:32.551Z,32.66
2023-03-28T07:29:32.627Z,32.45
2023-03-28T07:30:32.892Z,32.58
2023-03-28T07:31:32.560Z,33.14
2023-03-28T07:32:39.356Z,32.82
2023-03-28T07:33:37.170Z,33.16
2023-03-28T07:34:32.497Z,32.64
2023-03-28T07:35:32.584Z,31.62
2023-03-28T07:36:32.477Z,31.60
2023-03-28T07:37:32.483Z,31.78
2023-03-28T07:38:32.466Z,32.67
2023-03-28T07:39:32.458Z,32.67
2023-03-28T07:40:32.467Z,31.87
2023-03-28T07:41:32.506Z,31.10
2023-03-28T07:42:32.550Z,30.83
2023-03-28T07:43:32.642Z,30.86
2023-03-28T07:44:32.684Z,30.53
2023-03-28T07:45:32.806Z,30.53
2023-03-28T07:46:32.782Z,31.15
2023-03-28T07:47:32.851Z,30.47
2023-03-28T07:48:32.875Z,30.51
2023-03-28T07:49:32.904Z,30.59
2023-03-28T07:50:32.969Z,30.48
2023-03-28T07:51:33.367Z,30.57
2023-03-28T07:52:33.066Z,30.64
2023-03-28T07:53:33.120Z,30.76
2023-03-28T07:54:33.183Z,31.07
2023-03-28T07:55:41.823Z,30.28
2023-03-28T07:56:34.413Z,30.20
2023-03-28T07:57:33.216Z,30.86
2023-03-28T07:58:33.211Z,30.35
2023-03-28T07:59:33.194Z,31.15
2023-03-28T08:00:33.209Z,31.13
2023-03-28T08:01:33.180Z,31.54
2023-03-28T08:02:33.289Z,30.57
2023-03-28T08:03:33.219Z,30.33
2023-03-28T08:04:33.155Z,29.69
2023-03-28T08:05:33.174Z,30.28
2023-03-28T08:06:33.166Z,30.48
2023-03-28T08:07:33.162Z,30.35
2023-03-28T08:08:33.139Z,30.13
2023-03-28T08:09:33.142Z,30.76
2023-03-28T08:10:33.115Z,30.74
2023-03-28T08:11:33.106Z,30.47
2023-03-28T08:12:33.098Z,29.63
2023-03-28T08:13:33.153Z,30.00
2023-03-28T08:14:33.086Z,30.44
2023-03-28T08:15:33.145Z,30.40
2023-03-28T08:16:33.211Z,30.92
2023-03-28T08:17:33.256Z,30.16
2023-03-28T08:18:33.253Z,29.97
2023-03-28T08:19:33.247Z,30.38
2023-03-28T08:20:33.288Z,31.39
2023-03-28T08:21:33.318Z,30.84
2023-03-28T08:22:33.418Z,31.20
2023-03-28T08:23:33.343Z,31.10
2023-03-28T08:24:36.172Z,31.17
2023-03-28T08:25:33.361Z,30.49
2023-03-28T08:26:33.298Z,30.01
2023-03-28T08:27:33.316Z,30.90
2023-03-28T08:28:33.289Z,31.39
2023-03-28T08:29:33.303Z,31.27
2023-03-28T08:30:33.304Z,30.90
2023-03-28T08:31:33.329Z,30.88
2023-03-28T08:32:33.299Z,30.64
2023-03-28T08:33:33.267Z,31.03
2023-03-28T08:34:33.291Z,30.81
2023-03-28T08:35:33.295Z,32.65
2023-03-28T08:36:33.251Z,32.41
2023-03-28T08:37:33.243Z,32.54
2023-03-28T08:38:33.251Z,32.14
2023-03-28T08:39:33.387Z,31.32
2023-03-28T08:40:33.240Z,31.15
2023-03-28T08:41:33.196Z,31.23
2023-03-28T08:42:33.210Z,31.19
2023-03-28T08:43:33.195Z,31.27
2023-03-28T08:44:33.171Z,31.16
2023-03-28T08:45:33.174Z,31.31
2023-03-28T08:46:33.212Z,31.11
2023-03-28T08:47:33.197Z,31.46
2023-03-28T08:48:33.163Z,31.48
2023-03-28T08:49:33.173Z,31.92
2023-03-28T08:50:33.170Z,31.73
2023-03-28T08:51:33.142Z,31.84
2023-03-28T08:52:33.204Z,31.93
2023-03-28T08:53:33.126Z,32.68
2023-03-28T08:54:33.157Z,31.45
2023-03-28T08:55:33.122Z,32.21
2023-03-28T08:56:33.089Z,32.24
2023-03-28T08:57:33.127Z,31.86
2023-03-28T08:58:33.082Z,31.42
2023-03-28T08:59:33.084Z,30.47
2023-03-28T09:00:33.080Z,30.55
2023-03-28T09:01:33.147Z,31.20
2023-03-28T09:02:33.226Z,30.11
2023-03-28T09:03:33.191Z,29.82
2023-03-28T09:04:33.057Z,30.47
2023-03-28T09:05:33.037Z,29.87
2023-03-28T09:06:33.030Z,29.92
2023-03-28T09:07:33.003Z,31.50
2023-03-28T09:08:33.025Z,31.37
2023-03-28T09:09:33.001Z,31.70
2023-03-28T09:10:33.003Z,32.65
2023-03-28T09:11:33.002Z,32.60
2023-03-28T09:12:32.992Z,33.08
2023-03-28T09:13:32.992Z,30.54
2023-03-28T09:14:32.972Z,30.30
2023-03-28T09:15:32.976Z,30.97
2023-03-28T09:16:33.021Z,31.29
2023-03-28T09:17:33.236Z,30.50
2023-03-28T09:18:32.934Z,29.74
2023-03-28T09:19:44.798Z,28.44
2023-03-28T09:20:33.935Z,29.61
2023-03-28T09:21:32.909Z,29.78
2023-03-28T09:22:32.907Z,28.95
2023-03-28T09:23:32.901Z,30.26
2023-03-28T09:24:32.903Z,30.85
2023-03-28T09:25:32.899Z,30.02
2023-03-28T09:26:32.885Z,30.02
2023-03-28T09:27:32.978Z,30.29
2023-03-28T09:28:32.973Z,31.57
2023-03-28T09:29:33.401Z,33.56
2023-03-28T09:30:33.040Z,34.25
2023-03-28T09:31:33.198Z,33.83
2023-03-28T09:32:33.195Z,32.91
2023-03-28T09:33:33.111Z,29.63
2023-03-28T09:34:33.389Z,27.88
2023-03-28T09:35:33.175Z,27.10
2023-03-28T09:36:45.401Z,26.72
2023-03-28T09:37:34.122Z,25.89
2023-03-28T09:38:33.112Z,24.98
2023-03-28T09:39:33.111Z,24.88
2023-03-28T09:40:33.118Z,24.82
2023-03-28T09:41:33.098Z,26.82
2023-03-28T09:42:33.090Z,26.77
2023-03-28T09:43:33.098Z,25.70
2023-03-28T09:44:43.652Z,25.46
2023-03-28T09:45:34.086Z,25.20
2023-03-28T09:46:33.064Z,25.17
2023-03-28T09:47:33.213Z,24.75
2023-03-28T09:48:33.100Z,24.86
2023-03-28T09:49:33.394Z,24.89
2023-03-28T09:50:33.018Z,25.19
2023-03-28T09:51:33.036Z,25.14
2023-03-28T09:52:33.027Z,25.32
2023-03-28T09:53:33.495Z,23.37
2023-03-28T09:54:33.058Z,23.05
2023-03-28T09:55:33.761Z,23.71
2023-03-28T09:56:33.126Z,24.55
2023-03-28T09:57:33.148Z,24.64
2023-03-28T09:58:33.140Z,24.97
2023-03-28T09:59:33.406Z,26.54
2023-03-28T10:00:33.412Z,28.31
2023-03-28T10:01:33.339Z,29.31
2023-03-28T10:02:33.341Z,28.55
2023-03-28T10:03:33.377Z,28.07
2023-03-28T10:04:33.965Z,27.36
2023-03-28T10:05:33.954Z,26.80
2023-03-28T10:06:33.476Z,28.08
2023-03-28T10:07:33.545Z,29.57
2023-03-28T10:08:33.540Z,31.14
2023-03-28T10:09:33.555Z,31.44
2023-03-28T10:10:33.917Z,30.73
2023-03-28T10:11:33.726Z,30.03
2023-03-28T10:12:33.603Z,29.55
2023-03-28T10:13:33.629Z,30.06
2023-03-28T10:14:33.673Z,31.93
2023-03-28T10:15:33.658Z,30.04
2023-03-28T10:16:33.655Z,30.51
2023-03-28T10:17:35.404Z,30.51
2023-03-28T10:18:33.645Z,30.22
2023-03-28T10:19:33.682Z,29.40
2023-03-28T10:20:33.932Z,28.64
2023-03-28T10:21:33.715Z,28.52
2023-03-28T10:22:33.617Z,28.03
2023-03-28T10:23:33.631Z,29.99
2023-03-28T10:24:33.627Z,29.08
2023-03-28T10:25:33.905Z,29.02
2023-03-28T10:26:33.582Z,28.34
2023-03-28T10:27:33.710Z,28.56
2023-03-28T10:28:33.588Z,27.70
2023-03-28T10:29:33.576Z,27.74
2023-03-28T10:30:33.569Z,27.15
2023-03-28T10:31:33.603Z,25.18
2023-03-28T10:32:33.577Z,25.55
2023-03-28T10:33:33.559Z,24.01
2023-03-28T10:34:33.627Z,23.02
2023-03-28T10:35:33.553Z,22.65
2023-03-28T10:36:33.531Z,22.65
2023-03-28T10:37:33.523Z,22.69
2023-03-28T10:38:33.505Z,23.01
2023-03-28T10:39:33.499Z,21.88
2023-03-28T10:40:33.567Z,21.95
2023-03-28T10:41:33.501Z,23.10
2023-03-28T10:42:33.524Z,22.83
2023-03-28T10:43:33.500Z,23.80
2023-03-28T10:44:33.598Z,23.06
2023-03-28T10:45:33.467Z,22.29
2023-03-28T10:46:33.560Z,21.04
2023-03-28T10:47:33.492Z,21.43
2023-03-28T10:48:33.452Z,21.12
2023-03-28T10:49:33.440Z,21.75
2023-03-28T10:51:33.445Z,21.91
2023-03-28T10:52:33.927Z,21.61
2023-03-28T10:53:33.427Z,21.15
2023-03-28T10:54:33.400Z,21.60
2023-03-28T10:55:33.406Z,23.04
2023-03-28T10:56:33.413Z,21.83
2023-03-28T10:57:33.386Z,21.79
2023-03-28T10:58:33.397Z,22.02
2023-03-28T10:59:33.409Z,21.34
2023-03-28T11:00:33.368Z,21.79
2023-03-28T11:01:33.521Z,20.14
2023-03-28T11:02:33.409Z,19.89
2023-03-28T11:03:33.452Z,20.32
2023-03-28T11:04:33.461Z,20.41
2023-03-28T11:05:33.500Z,20.41
2023-03-28T11:06:33.514Z,20.60
2023-03-28T11:07:33.598Z,21.15
2023-03-28T11:08:33.636Z,22.87
2023-03-28T11:09:33.697Z,20.77
2023-03-28T11:10:33.778Z,21.59
2023-03-28T11:11:33.810Z,21.48
2023-03-28T11:12:40.842Z,21.55
2023-03-28T11:13:34.856Z,22.67
2023-03-28T11:14:33.852Z,23.23
2023-03-28T11:15:33.827Z,24.22
2023-03-28T11:16:34.052Z,24.72
2023-03-28T11:17:33.942Z,24.90
2023-03-28T11:18:33.810Z,24.52
2023-03-28T11:19:33.806Z,23.30
2023-03-28T11:20:33.809Z,23.73
2023-03-28T11:21:33.865Z,24.40
2023-03-28T11:22:33.939Z,22.98
2023-03-28T11:23:36.077Z,22.53
2023-03-28T11:24:33.924Z,22.61
2023-03-28T11:25:33.918Z,21.86
2023-03-28T11:26:33.922Z,21.59
2023-03-28T11:27:33.891Z,21.91
2023-03-28T11:28:33.903Z,21.36
2023-03-28T11:29:42.438Z,21.57
2023-03-28T11:30:34.894Z,21.75
2023-03-28T11:31:33.899Z,22.16
2023-03-28T11:32:33.900Z,21.76
2023-03-28T11:33:33.886Z,21.91
2023-03-28T11:34:33.863Z,20.86
2023-03-28T11:35:33.916Z,21.39
2023-03-28T11:36:33.863Z,21.11
2023-03-28T11:37:33.842Z,22.48
2023-03-28T11:38:33.817Z,20.58
2023-03-28T11:39:33.829Z,20.22
2023-03-28T11:40:33.826Z,19.73
2023-03-28T11:41:33.806Z,19.91
2023-03-28T11:42:33.787Z,20.54
2023-03-28T11:43:33.812Z,20.70
2023-03-28T11:44:33.808Z,20.65
2023-03-28T11:45:49.581Z,20.86
2023-03-28T11:46:34.948Z,20.38
2023-03-28T11:47:33.888Z,20.19
2023-03-28T11:48:33.841Z,20.27
2023-03-28T11:49:33.827Z,19.40
2023-03-28T11:50:33.801Z,19.70
2023-03-28T11:51:33.808Z,20.07
2023-03-28T11:52:35.602Z,20.43
2023-03-28T11:53:33.833Z,21.59
2023-03-28T11:54:33.837Z,21.55
2023-03-28T11:55:33.825Z,20.90
2023-03-28T11:56:33.825Z,21.43
2023-03-28T11:57:33.811Z,22.09
2023-03-28T11:58:33.804Z,20.61
2023-03-28T11:59:33.818Z,20.40
2023-03-28T12:00:34.763Z,20.06
2023-03-28T12:01:33.804Z,20.65
2023-03-28T12:02:33.836Z,20.99
2023-03-28T12:03:33.891Z,20.55
2023-03-28T12:04:33.804Z,20.34
2023-03-28T12:05:33.739Z,20.56
2023-03-28T12:06:33.750Z,20.59
2023-03-28T12:07:33.735Z,20.81
2023-03-28T12:08:33.717Z,20.49
2023-03-28T12:09:33.718Z,19.98
2023-03-28T12:10:33.722Z,20.17
2023-03-28T12:11:36.282Z,20.51
2023-03-28T12:12:33.693Z,20.38
2023-03-28T12:13:37.470Z,20.94
2023-03-28T12:14:34.708Z,20.79
2023-03-28T12:15:33.919Z,19.89
2023-03-28T12:16:33.728Z,20.26
2023-03-28T12:17:33.701Z,19.73
2023-03-28T12:18:33.672Z,20.20
2023-03-28T12:19:33.670Z,20.81
2023-03-28T12:20:33.920Z,19.89
2023-03-28T12:21:34.194Z,18.48
2023-03-28T12:22:33.696Z,19.29
2023-03-28T12:23:33.735Z,21.06
2023-03-28T12:24:33.787Z,23.98
2023-03-28T12:25:33.829Z,23.20
2023-03-28T12:26:33.904Z,22.42
2023-03-28T12:27:33.931Z,23.25
2023-03-28T12:28:33.992Z,23.69
2023-03-28T12:29:34.021Z,23.47
2023-03-28T12:30:34.120Z,23.60
2023-03-28T12:31:34.196Z,23.89
2023-03-28T12:32:34.232Z,24.10
2023-03-28T12:33:34.227Z,23.90
2023-03-28T12:34:34.268Z,23.25
2023-03-28T12:35:34.363Z,23.21
2023-03-28T12:36:34.391Z,22.56
2023-03-28T12:37:34.443Z,22.24
2023-03-28T12:38:34.514Z,20.94
2023-03-28T12:39:34.546Z,20.55
2023-03-28T12:40:34.626Z,19.78
2023-03-28T12:41:34.694Z,19.22
2023-03-28T12:42:34.757Z,18.69
2023-03-28T12:43:34.829Z,19.32
2023-03-28T12:44:34.885Z,20.00
2023-03-28T12:45:34.945Z,19.88
2023-03-28T12:46:35.089Z,19.42
2023-03-28T12:47:35.087Z,18.47
2023-03-28T12:48:35.123Z,18.48
2023-03-28T12:49:35.185Z,18.77
2023-03-28T12:50:35.228Z,19.03
2023-03-28T12:51:35.276Z,20.34
2023-03-28T12:52:35.322Z,20.28
2023-03-28T12:53:35.341Z,19.34